Aérodrome :
LOGIN :

S'inscrire | Disclaimer

   EN    FR    IT 

 










Légende :    VFR   VFR Marginal   IFR   IFR Intensif   IFR Très Intensif
Visi : 
Plafond : 
>= 8 km
>= 3000ft
5 à 8 km
1000 à 3000 ft
1500m à 5 km
500 à 1000 ft
800 à 1500m
200 à 500 ft
< 800m
< 200 ft
Symboles :   Orages  Brouillard  Fortes neiges  Fortes précipitations  Vent > 20 kt
SIGMETs :   Divers  Orages  Givrage  Turbulence  Onde Orograph.  Cendres Volcan.






- Altitude de l'aérodrome : 138 ft
- Code IATA : RLG


ETNL - Rostock Laage

DERNIER METAR :
  • 212220Z 26011KT 5000 BR BKN004 05/03 Q1032 YLO

METARs EXPIRÉS :
  • 212141Z 26012KT 4800 -DZ BR BKN006 BKN010 05/03 Q1032 YLO
  • 212120Z 26013KT 9999 BKN007 05/03 Q1033 GRN
  • 212020Z 27014KT 9999 BKN009 05/03 Q1033 GRN
  • 211933Z 26011KT 9999 BKN011 05/03 Q1033 GRN FCST CANCEL

TAF AMD TAF ETNL
Valide du 21 à 19h jusqu'au 22 à 06h UTC


211922Z 2119/2206 26010KT 8000 NSW BKN008
TEMPO 2119/2122 28012G22KT 3000 -DZ BKN005
TEMPO 2122/2206 27012G22KT 1500 DZ OVC002 BY ETGL



MET'MAP, la Météo Aéronautique d'un coup d'oeil ! - Copyright ORBIFLY Décembre 2007 - Disclaimer

ORBIFLY MET'MAP TEAM :

Programmation & Développement : Alexandra Zaïnal
Sur une idée originale de : Baudouin d'Aumeries
Assistance à la programmation : Marc-Olivier Méhu
Soutien technique & logistique : Manuel Goepfert

Contact : metmap@orbifly.com




SOURCES & CREDITS :

   NOAA